Impacts TAF Board
For situational awareness. Not to be used for flight planning purposes.
IDs:

KABQ - Albuquerque Intl, NM, US

Issued at 1738 UTC 02 Aug 2021
Updated at 2220 UTC 02 Aug 2021
Potential Impact None Slight Moderate High
Time2152Z 02/23Z 03/00Z 03/01Z 03/02Z 03/03Z 03/04Z 03/05Z 03/06Z 03/07Z 03/08Z 03/09Z 03/10Z 03/11Z>>
Type OBS PRVL PRVL PRVL PRVL PRVL PRVL PRVL PRVL PRVL PRVL PRVL PRVL PRVL
VIS 10 >6 >6 >6 >6 >6 >6 >6 >6 >6 >6 >6 >6 >6
CIG 250 100 100 100 100 100 110 110 110 -- -- -- -- --
Cover BKN BKN BKN BKN BKN BKN BKN BKN BKN SCT SCT SCT SCT SCT
FltCat VFR VFR VFR VFR VFR VFR VFR VFR VFR VFR VFR VFR VFR VFR
WX -- -- VCTS VCTS VCTS VCTS VCSH VCSH VCSH -- -- -- -- --
WDir VRB VRB 260 260 260 260 VRB VRB VRB VRB VRB VRB VRB VRB
WSpd 5 6 8 8 8 8 5 5 5 3 3 3 3 3
WGst -- -- -- -- -- -- -- -- -- -- -- -- -- --
Raw TAF
KABQ 021738Z 0218/0318 VRB06KT P6SM SCT070 BKN100
  FM030000 26008KT P6SM VCTS SCT080CB BKN100
  FM030400 VRB05KT P6SM VCSH SCT090 BKN110
  FM030700 VRB03KT P6SM SCT120


Raw METAR
KABQ 022152Z VRB05KT 10SM FEW060TCU SCT180 BKN250 27/13 A3027 RMK AO2 SLP168 CB DSNT N TCU E T02720128
KABQ 022052Z 36006KT 10SM FEW055 SCT160 BKN250 26/13 A3030 RMK AO2 SLP181 T02610128 56025
KABQ 021952Z 00000KT 10SM FEW050 SCT170 BKN250 25/13 A3033 RMK AO2 SLP194 MTN TOP OBSC NE T02500128

METAR Board
Radar Display
Forecast Discussion
For situational awareness. Not to be used for flight planning purposes.